createdAt,value
2023-03-23T16:00:28.180Z,2.20
2023-03-23T16:05:31.943Z,3.00
2023-03-23T16:10:36.782Z,2.17
2023-03-23T16:15:42.761Z,2.22
2023-03-23T16:20:46.912Z,2.30
2023-03-23T16:25:51.952Z,2.10
2023-03-23T16:30:55.377Z,2.40
2023-03-23T16:35:58.823Z,2.53
2023-03-23T16:41:03.892Z,3.65
2023-03-23T16:46:07.818Z,3.22
2023-03-23T16:51:11.402Z,3.10
2023-03-23T16:56:16.241Z,3.08
2023-03-23T17:01:19.865Z,2.67
2023-03-23T17:06:23.344Z,2.75
2023-03-23T17:11:28.145Z,3.13
2023-03-23T17:16:31.663Z,3.08
2023-03-23T17:21:36.199Z,2.95
2023-03-23T17:26:41.123Z,2.50
2023-03-23T17:31:44.794Z,2.50
2023-03-23T17:36:48.292Z,2.67
2023-03-23T17:41:53.056Z,3.63
2023-03-23T17:46:57.553Z,4.68
2023-03-23T17:52:01.580Z,4.47
2023-03-23T17:57:06.659Z,3.95
2023-03-23T18:02:13.989Z,3.03
2023-03-23T18:07:19.190Z,4.32
2023-03-23T18:12:23.976Z,3.88
2023-03-23T18:17:27.570Z,3.85
2023-03-23T18:22:31.836Z,3.90
2023-03-23T18:27:37.034Z,4.05
2023-03-23T18:32:41.985Z,4.97
2023-03-23T18:37:47.844Z,4.60
2023-03-23T18:42:52.699Z,4.93
2023-03-23T18:47:56.308Z,5.00
2023-03-23T18:52:59.749Z,4.15
2023-03-23T18:58:05.314Z,5.15
2023-03-23T19:03:09.990Z,4.90
2023-03-23T19:08:13.845Z,4.75
2023-03-23T19:13:18.865Z,4.70
2023-03-23T19:18:23.983Z,5.22
2023-03-23T19:23:27.549Z,4.78
2023-03-23T19:33:45.465Z,5.10
2023-03-23T19:38:51.780Z,5.38
2023-03-23T19:43:57.810Z,6.50
2023-03-23T19:49:02.129Z,7.20
2023-03-23T19:54:07.964Z,6.57
2023-03-23T19:59:17.449Z,6.90
2023-03-23T20:04:22.625Z,6.32
2023-03-23T20:09:31.045Z,5.53
2023-03-23T20:14:38.116Z,5.15
2023-03-23T20:19:43.041Z,5.03
2023-03-23T20:24:47.300Z,5.15
2023-03-23T20:29:53.546Z,4.85
2023-03-23T20:34:57.105Z,4.85
2023-03-23T20:40:00.852Z,4.40
2023-03-23T20:45:08.527Z,5.13
2023-03-23T20:50:13.635Z,4.82
2023-03-23T20:55:18.794Z,5.30
2023-03-23T21:00:25.791Z,4.70
2023-03-23T21:05:30.118Z,5.05
2023-03-23T21:10:34.382Z,4.63
2023-03-23T21:15:40.660Z,4.90
2023-03-23T21:20:44.776Z,5.13
2023-03-23T21:25:49.360Z,4.72
2023-03-23T21:30:54.771Z,5.10
2023-03-23T21:35:58.718Z,4.95
2023-03-23T21:41:08.588Z,4.85
2023-03-23T21:46:18.194Z,5.28
2023-03-23T21:51:24.532Z,4.78
2023-03-23T21:56:28.941Z,4.70
2023-03-23T22:01:36.978Z,4.35
2023-03-23T22:06:42.734Z,4.13
2023-03-23T22:11:46.326Z,4.53
2023-03-23T22:16:51.585Z,3.60
2023-03-23T22:21:55.414Z,3.70
2023-03-23T22:26:58.776Z,4.50
2023-03-23T22:32:03.601Z,3.95
2023-03-23T22:37:08.375Z,3.92
2023-03-23T22:42:13.092Z,3.90
2023-03-23T22:47:18.360Z,4.45
2023-03-23T22:52:21.733Z,4.10
2023-03-23T22:57:25.546Z,3.80
2023-03-23T23:02:30.320Z,4.65
2023-03-23T23:07:33.706Z,5.53
2023-03-23T23:12:37.531Z,5.82
2023-03-23T23:17:43.138Z,5.25
2023-03-23T23:22:47.080Z,4.75
2023-03-23T23:27:50.839Z,4.32
2023-03-23T23:32:56.783Z,3.40
2023-03-23T23:38:00.254Z,4.40
2023-03-23T23:43:04.578Z,4.75
2023-03-23T23:48:09.678Z,4.10
2023-03-23T23:53:13.148Z,4.18
2023-03-23T23:58:17.084Z,3.38
